Meteorología y climatología de Navarra
Datos de la estación - Meteo Navarra

Estación de Carrascal GN

Altitud 568 m.


Datos desde el 11/10/2018 hasta el 12/10/2018 en horario solar
Los datos son PROVISIONALES

Anterior Página 1 de 1 Siguiente Descargar: Formato para Excel 2000 o superior   Formato csv   Formato para OpenOffice Calc
Fecha Temperatura Humedad relativa Radiación global Insolación Precipitación Velocidad viento 10 m Velocidad viento 10 m Dirección viento 10 m
ºC % W/m² s l/m² m/s km/h º
11/10/2018 0:00 16.3 66 0.0 0 0.0 9.8 35.4 156
11/10/2018 0:10 16.3 67 0.0 0 0.0 9.7 34.8 158
11/10/2018 0:20 16.4 67 0.0 0 0.0 9.3 33.4 158
11/10/2018 0:30 16.0 69 0.0 0 0.0 7.5 27.0 165
11/10/2018 0:40 15.8 70 0.0 0 0.0 7.8 27.9 163
11/10/2018 0:50 15.6 71 0.0 0 0.0 6.4 23.0 173
11/10/2018 1:00 15.5 73 0.0 0 0.0 9.1 32.9 155
11/10/2018 1:10 15.9 71 0.0 0 0.0 10.1 36.5 157
11/10/2018 1:20 16.0 70 0.0 0 0.0 8.9 31.9 164
11/10/2018 1:30 15.9 71 0.0 0 0.0 7.6 27.5 166
11/10/2018 1:40 15.7 72 0.0 0 0.0 7.7 27.9 165
11/10/2018 1:50 15.9 70 0.0 0 0.0 8.5 30.7 168
11/10/2018 2:00 15.5 71 0.0 0 0.0 6.9 24.9 175
11/10/2018 2:10 15.5 71 0.0 0 0.0 8.0 28.6 167
11/10/2018 2:20 16.2 68 0.0 0 0.0 8.7 31.4 148
11/10/2018 2:30 16.3 68 0.0 0 0.0 10.3 36.9 149
11/10/2018 2:40 16.7 67 0.0 0 0.0 10.1 36.4 155
11/10/2018 2:50 16.4 68 0.0 0 0.0 8.9 31.9 151
11/10/2018 3:00 16.5 67 0.0 0 0.0 10.7 38.6 147
11/10/2018 3:10 16.4 68 0.0 0 0.0 11.7 42.0 148
11/10/2018 3:20 16.7 67 0.0 0 0.0 11.8 42.4 147
11/10/2018 3:30 16.8 65 0.0 0 0.0 11.3 40.6 147
11/10/2018 3:40 16.5 67 0.0 0 0.0 9.4 33.9 151
11/10/2018 3:50 16.3 68 0.0 0 0.0 9.3 33.4 159
11/10/2018 4:00 16.1 70 0.0 0 0.0 8.3 29.8 157
11/10/2018 4:10 15.9 71 0.0 0 0.0 7.6 27.4 154
11/10/2018 4:20 15.9 71 0.0 0 0.0 8.5 30.6 154
11/10/2018 4:30 16.0 71 0.0 0 0.0 9.5 34.1 151
11/10/2018 4:40 16.2 70 0.0 0 0.0 10.7 38.4 150
11/10/2018 4:50 16.4 69 0.0 0 0.0 11.4 40.9 148
11/10/2018 5:00 16.5 69 0.0 0 0.0 10.4 37.5 151
11/10/2018 5:10 16.2 70 0.0 0 0.0 10.6 38.1 151
11/10/2018 5:20 16.3 70 0.0 0 0.0 10.8 39.0 148
11/10/2018 5:30 16.2 70 0.0 0 0.0 11.7 42.0 147
11/10/2018 5:40 16.1 71 0.0 0 0.0 11.3 40.8 152
11/10/2018 5:50 16.2 70 0.0 0 0.0 11.7 42.2 153
11/10/2018 6:00 16.4 69 0.0 0 0.0 11.8 42.5 158
11/10/2018 6:10 16.3 70 0.0 0 0.0 10.6 38.3 159
11/10/2018 6:20 16.0 72 0.0 0 0.0 8.2 29.6 162
11/10/2018 6:30 15.8 73 0.0 0 0.0 9.0 32.4 157
11/10/2018 6:40 15.7 73 16.8 0 0.0 10.9 39.1 154
11/10/2018 6:50 16.0 73 27.7 0 0.0 11.8 42.3 154
11/10/2018 7:00 16.0 73 37.8 0 0.0 11.1 39.9 153
11/10/2018 7:10 16.0 72 44.6 0 0.0 11.1 40.0 150
11/10/2018 7:20 16.0 72 57.4 0 0.0 9.9 35.7 155
11/10/2018 7:30 16.2 72 76.4 8 0.0 10.6 38.1 156
11/10/2018 7:40 16.4 72 80.4 0 0.0 11.0 39.5 154
11/10/2018 7:50 16.4 71 98.7 0 0.0 11.0 39.7 150
11/10/2018 8:00 16.7 70 134.9 0 0.0 10.1 36.3 153
11/10/2018 8:10 17.1 69 167.7 240 0.0 9.2 33.1 145
11/10/2018 8:20 17.5 67 255.8 600 0.0 8.8 31.6 147
11/10/2018 8:30 17.8 66 243.1 600 0.0 8.8 31.5 152
11/10/2018 8:40 18.0 66 244.1 598 0.0 9.8 35.4 153
11/10/2018 8:50 17.9 66 205.8 18 0.0 9.7 35.0 155
11/10/2018 9:00 18.0 66 270.5 484 0.0 8.7 31.3 148
11/10/2018 9:10 18.4 64 242.3 228 0.0 9.4 33.9 156
11/10/2018 9:20 18.9 63 373.1 432 0.0 9.3 33.4 150
11/10/2018 9:30 19.3 61 328.8 324 0.0 8.4 30.3 157
11/10/2018 9:40 18.9 62 407.8 360 0.0 8.2 29.6 148
11/10/2018 9:50 20.0 59 429.8 410 0.0 8.5 30.6 154
11/10/2018 10:00 19.7 60 254.8 66 0.0 8.4 30.2 155
11/10/2018 10:10 19.2 62 205.0 0 0.0 8.1 29.3 152
11/10/2018 10:20 19.5 61 252.8 0 0.0 8.1 29.3 153
11/10/2018 10:30 19.8 60 275.4 48 0.0 8.5 30.4 159
11/10/2018 10:40 20.5 58 548.0 540 0.0 8.9 32.0 172
11/10/2018 10:50 20.3 58 218.1 0 0.0 10.5 37.7 178
11/10/2018 11:00 19.5 61 170.4 0 0.0 9.9 35.5 177
11/10/2018 11:10 19.3 63 229.8 0 0.0 7.8 28.2 169
11/10/2018 11:20 19.1 63 239.6 0 0.0 9.1 32.8 154
11/10/2018 11:30 19.2 63 211.0 0 0.0 7.3 26.1 164
11/10/2018 11:40 19.2 64 241.8 14 0.0 7.6 27.5 165
11/10/2018 11:50 19.7 62 366.0 516 0.0 9.4 33.8 152
11/10/2018 12:00 20.1 61 347.1 274 0.0 8.9 31.9 156
11/10/2018 12:10 20.1 60 324.7 0 0.0 8.9 31.9 157
11/10/2018 12:20 20.1 60 296.7 0 0.0 9.7 35.1 150
11/10/2018 12:30 19.8 61 266.0 0 0.0 10.7 38.4 153
11/10/2018 12:40 19.7 62 210.3 0 0.0 8.0 28.9 163
11/10/2018 12:50 19.7 61 189.2 0 0.0 8.7 31.4 154
11/10/2018 13:00 19.7 61 200.2 0 0.0 8.0 28.9 171
11/10/2018 13:10 19.9 61 170.7 0 0.0 10.2 36.6 145
11/10/2018 13:20 19.8 61 224.3 12 0.0 10.5 37.9 147
11/10/2018 13:30 19.9 61 260.4 150 0.0 11.3 40.6 149
11/10/2018 13:40 20.7 58 550.5 536 0.0 11.7 42.0 146
11/10/2018 13:50 21.1 57 570.0 600 0.0 10.0 36.1 145
11/10/2018 14:00 22.1 55 605.6 600 0.0 8.5 30.6 168
11/10/2018 14:10 22.9 53 620.7 600 0.0 8.6 30.8 151
11/10/2018 14:20 22.3 54 337.4 372 0.0 8.6 31.1 150
11/10/2018 14:30 22.3 54 507.5 560 0.0 8.3 29.8 152
11/10/2018 14:40 21.8 55 197.9 44 0.0 8.8 31.7 154
11/10/2018 14:50 21.2 57 167.4 18 0.0 8.3 30.0 159
11/10/2018 15:00 21.1 57 134.8 0 0.0 7.9 28.3 165
11/10/2018 15:10 21.0 57 77.4 0 0.0 7.7 27.7 152
11/10/2018 15:20 20.6 59 36.4 0 0.0 7.7 27.7 154
11/10/2018 15:30 19.4 69 53.5 0 0.1 7.4 26.7 155
11/10/2018 15:40 18.7 73 62.1 0 0.0 8.2 29.7 175
11/10/2018 15:50 18.5 76 96.6 0 0.0 8.8 31.7 170
11/10/2018 16:00 18.4 75 108.1 0 0.0 8.3 29.8 151
11/10/2018 16:10 18.5 72 77.4 0 0.0 8.0 28.8 146
11/10/2018 16:20 18.9 69 66.7 0 0.0 8.1 29.0 148
11/10/2018 16:30 19.4 66 82.0 0 0.0 9.4 33.9 149
11/10/2018 16:40 19.5 65 63.2 0 0.0 9.7 34.7 145
11/10/2018 16:50 19.6 64 43.5 0 0.0 8.3 29.9 152
11/10/2018 17:00 19.4 65 31.5 0 0.0 8.1 29.2 155
11/10/2018 17:10 19.5 64 5.9 0 0.0 9.8 35.3 152
11/10/2018 17:20 19.7 64 0.0 0 0.0 8.9 32.0 151
11/10/2018 17:30 19.6 64 0.0 0 0.0 9.4 33.8 147
11/10/2018 17:40 19.8 63 0.0 0 0.0 8.0 28.8 147
11/10/2018 17:50 19.7 64 0.0 0 0.0 7.8 28.2 147
11/10/2018 18:00 19.7 63 0.0 0 0.0 8.3 29.7 146
11/10/2018 18:10 19.7 63 0.0 0 0.0 7.1 25.7 150
11/10/2018 18:20 19.9 63 0.0 0 0.0 6.9 24.9 149
11/10/2018 18:30 20.0 63 0.0 0 0.0 8.2 29.7 150
11/10/2018 18:40 19.1 71 0.0 0 0.0 8.9 32.1 156
11/10/2018 18:50 18.5 71 0.0 0 0.0 8.5 30.5 158
11/10/2018 19:00 19.3 67 0.0 0 0.0 7.9 28.3 154
11/10/2018 19:10 19.5 65 0.0 0 0.0 6.4 22.9 163
11/10/2018 19:20 19.8 64 0.0 0 0.0 7.7 27.6 157
11/10/2018 19:30 19.6 65 0.0 0 0.0 5.4 19.3 173
11/10/2018 19:40 19.6 64 0.0 0 0.0 8.1 29.0 158
11/10/2018 19:50 19.7 64 0.0 0 0.0 6.9 24.9 170
11/10/2018 20:00 19.3 65 0.0 0 0.0 6.5 23.3 164
11/10/2018 20:10 19.7 64 0.0 0 0.0 8.4 30.1 153
11/10/2018 20:20 19.9 63 0.0 0 0.0 10.0 35.9 148
11/10/2018 20:30 19.8 63 0.0 0 0.0 9.7 34.8 149
11/10/2018 20:40 19.8 63 0.0 0 0.0 10.1 36.2 150
11/10/2018 20:50 19.7 63 0.0 0 0.0 9.7 34.7 151
11/10/2018 21:00 19.6 64 0.0 0 0.0 9.8 35.2 151
11/10/2018 21:10 19.5 64 0.0 0 0.0 9.3 33.6 151
11/10/2018 21:20 19.3 64 0.0 0 0.0 7.4 26.6 161
11/10/2018 21:30 19.2 65 0.0 0 0.0 7.2 26.0 159
11/10/2018 21:40 19.0 65 0.0 0 0.0 7.5 27.0 158
11/10/2018 21:50 19.2 64 0.0 0 0.0 9.4 33.8 148
11/10/2018 22:00 19.4 64 0.0 0 0.0 9.6 34.6 148
11/10/2018 22:10 19.4 64 0.0 0 0.0 9.5 34.3 151
11/10/2018 22:20 19.4 64 0.0 0 0.0 9.6 34.6 148
11/10/2018 22:30 19.5 64 0.0 0 0.0 10.0 36.0 151
11/10/2018 22:40 19.3 64 0.0 0 0.0 9.8 35.2 150
11/10/2018 22:50 19.3 65 0.0 0 0.0 9.8 35.4 149
11/10/2018 23:00 19.3 65 0.0 0 0.0 10.2 36.6 147
11/10/2018 23:10 19.3 66 0.0 0 0.0 10.1 36.4 148
11/10/2018 23:20 19.1 67 0.0 0 0.0 7.9 28.5 154
11/10/2018 23:30 19.0 68 0.0 0 0.0 6.9 24.9 163
11/10/2018 23:40 18.7 69 0.0 0 0.0 6.1 22.0 167
11/10/2018 23:50 18.7 68 0.0 0 0.0 8.2 29.7 152
Anterior Página 1 de 1 Siguiente

NOTA: Tipo de datos según el color:
   - Valores diarios o 10 minutos correctos
   - Valores diarios calculados a partir de un número de datos 10 minutos menor que 144 y mayor que 120, o de un número de datos semihorarios menor que 48 y mayor que 40 (caso de las estaciones de Riegos de Navarra y del MARM)
   - Valores diez minutos estimados


Contacto        Enlaces        Aviso legal